createdAt,value
2017-02-02T00:00:18.681Z,0
2017-02-02T00:01:30.126Z,0
2017-02-02T00:02:41.536Z,0
2017-02-02T00:03:52.937Z,0
2017-02-02T00:05:04.347Z,0
2017-02-02T00:06:15.746Z,0
2017-02-02T00:07:27.198Z,0
2017-02-02T00:08:38.601Z,0
2017-02-02T00:09:50.008Z,0
2017-02-02T00:11:01.615Z,0
2017-02-02T00:12:13.007Z,0
2017-02-02T00:13:24.458Z,0
2017-02-02T00:14:36.061Z,0
2017-02-02T00:15:47.461Z,0
2017-02-02T00:16:58.865Z,0
2017-02-02T00:18:10.274Z,0
2017-02-02T00:19:21.720Z,0
2017-02-02T00:20:33.331Z,0
2017-02-02T00:21:44.736Z,0
2017-02-02T00:22:56.131Z,0
2017-02-02T00:24:07.535Z,0
2017-02-02T00:25:18.989Z,0
2017-02-02T00:26:30.389Z,0
2017-02-02T00:27:41.783Z,0
2017-02-02T00:28:53.182Z,0
2017-02-02T00:30:04.779Z,0
2017-02-02T00:31:16.238Z,0
2017-02-02T00:32:27.645Z,0
2017-02-02T00:33:39.049Z,0
2017-02-02T00:34:50.447Z,0
2017-02-02T00:36:01.846Z,0
2017-02-02T00:37:13.302Z,0
2017-02-02T00:38:24.908Z,0
2017-02-02T00:39:36.313Z,0
2017-02-02T00:40:47.710Z,0
2017-02-02T00:41:59.108Z,0
2017-02-02T00:43:10.558Z,0
2017-02-02T00:44:22.163Z,0
2017-02-02T00:45:33.570Z,0
2017-02-02T00:46:44.963Z,0
2017-02-02T00:47:56.363Z,0
2017-02-02T00:49:07.814Z,0
2017-02-02T00:50:19.216Z,0
2017-02-02T00:51:30.820Z,0
2017-02-02T00:52:42.218Z,0
2017-02-02T00:53:53.621Z,0
2017-02-02T00:55:05.078Z,0
2017-02-02T00:56:16.477Z,0
2017-02-02T00:57:27.875Z,0
2017-02-02T00:58:39.271Z,0
2017-02-02T00:59:50.881Z,0
2017-02-02T01:01:02.529Z,0
2017-02-02T01:02:14.128Z,0
2017-02-02T01:03:25.524Z,0
2017-02-02T01:04:37.122Z,0
2017-02-02T01:05:48.532Z,0
2017-02-02T01:06:59.981Z,0
2017-02-02T01:08:11.575Z,0
2017-02-02T01:09:22.980Z,0
2017-02-02T01:10:34.393Z,0
2017-02-02T01:11:45.791Z,0
2017-02-02T01:12:57.245Z,0
2017-02-02T01:14:08.645Z,0
2017-02-02T01:15:20.247Z,0
2017-02-02T01:16:31.651Z,0
2017-02-02T01:17:43.061Z,0
2017-02-02T01:18:54.508Z,0
2017-02-02T01:20:05.907Z,0
2017-02-02T01:21:17.503Z,0
2017-02-02T01:22:28.902Z,0
2017-02-02T01:23:40.503Z,0
2017-02-02T01:24:51.958Z,0
2017-02-02T01:26:03.563Z,0
2017-02-02T01:27:14.968Z,0
2017-02-02T01:28:26.371Z,0
2017-02-02T01:29:37.981Z,0
2017-02-02T01:30:49.430Z,0
2017-02-02T01:32:00.827Z,0
2017-02-02T01:33:12.232Z,0
2017-02-02T01:34:23.638Z,0
2017-02-02T01:35:35.036Z,0
2017-02-02T01:36:46.684Z,0
2017-02-02T01:37:58.087Z,0
2017-02-02T01:39:09.483Z,0
2017-02-02T01:40:20.881Z,0
2017-02-02T01:41:32.482Z,0
2017-02-02T01:42:44.128Z,0
2017-02-02T01:43:55.531Z,0
2017-02-02T01:45:06.925Z,0
2017-02-02T01:46:18.522Z,0
2017-02-02T01:47:29.919Z,0
2017-02-02T01:48:41.559Z,0
2017-02-02T01:49:52.964Z,0
2017-02-02T01:51:04.361Z,0
2017-02-02T01:52:16.168Z,0
2017-02-02T01:53:27.574Z,0
2017-02-02T01:54:39.227Z,0
2017-02-02T01:55:50.623Z,0
2017-02-02T01:57:02.025Z,0
2017-02-02T01:58:13.429Z,0
2017-02-02T01:59:25.021Z,0
2017-02-02T02:00:36.477Z,0
2017-02-02T02:01:47.876Z,0
2017-02-02T02:02:59.268Z,0
2017-02-02T02:04:10.674Z,0
2017-02-02T02:05:22.076Z,0
2017-02-02T02:06:33.522Z,0
2017-02-02T02:07:45.121Z,0
2017-02-02T02:08:56.536Z,0
2017-02-02T02:10:07.937Z,0
2017-02-02T02:11:19.346Z,0
2017-02-02T02:12:30.796Z,0
2017-02-02T02:13:42.401Z,0
2017-02-02T02:14:53.797Z,0
2017-02-02T02:16:05.202Z,0
2017-02-02T02:17:16.597Z,0
2017-02-02T02:18:28.054Z,0
2017-02-02T02:19:39.454Z,0
2017-02-02T02:20:51.064Z,0
2017-02-02T02:22:02.666Z,0
2017-02-02T02:23:14.260Z,0
2017-02-02T02:24:25.708Z,0
2017-02-02T02:25:37.114Z,0
2017-02-02T02:26:48.521Z,0
2017-02-02T02:27:59.914Z,0
2017-02-02T02:29:11.307Z,0
2017-02-02T02:30:22.753Z,0
2017-02-02T02:31:34.159Z,0
2017-02-02T02:32:45.765Z,0
2017-02-02T02:33:57.571Z,0
2017-02-02T02:35:08.974Z,0
2017-02-02T02:36:20.430Z,0
2017-02-02T02:37:32.038Z,0
2017-02-02T02:38:43.440Z,0
2017-02-02T02:39:54.841Z,0
2017-02-02T02:41:06.444Z,0
2017-02-02T02:42:17.895Z,0
2017-02-02T02:43:29.301Z,0
2017-02-02T02:44:40.705Z,0
2017-02-02T02:45:52.106Z,0
2017-02-02T02:47:03.502Z,0
2017-02-02T02:48:14.951Z,0
2017-02-02T02:49:26.352Z,0
2017-02-02T02:50:37.777Z,0
2017-02-02T02:51:49.190Z,0
2017-02-02T02:53:00.595Z,0
2017-02-02T02:54:12.045Z,0
2017-02-02T02:55:23.449Z,0
2017-02-02T02:56:34.850Z,0
2017-02-02T02:57:46.457Z,0
2017-02-02T02:58:57.860Z,0
2017-02-02T03:00:09.303Z,0
2017-02-02T03:01:20.704Z,0
2017-02-02T03:02:32.115Z,0
2017-02-02T03:03:43.511Z,0
2017-02-02T03:04:54.901Z,0
2017-02-02T03:06:06.355Z,0
2017-02-02T03:07:17.753Z,0
2017-02-02T03:08:29.154Z,0
2017-02-02T03:09:40.551Z,0
2017-02-02T03:10:51.944Z,0
2017-02-02T03:12:03.395Z,0
2017-02-02T03:13:14.797Z,0
2017-02-02T03:14:26.193Z,0
2017-02-02T03:15:37.608Z,0
2017-02-02T03:16:49.007Z,0
2017-02-02T03:18:00.458Z,0
2017-02-02T03:19:12.067Z,0
2017-02-02T03:20:23.465Z,0
2017-02-02T03:21:34.856Z,0
2017-02-02T03:22:46.262Z,0
2017-02-02T03:23:57.710Z,0
2017-02-02T03:25:09.107Z,0
2017-02-02T03:26:20.703Z,0
2017-02-02T03:27:32.111Z,0
2017-02-02T03:28:43.519Z,0
2017-02-02T03:29:54.966Z,0
2017-02-02T03:31:06.367Z,0
2017-02-02T03:32:17.763Z,0
2017-02-02T03:33:29.166Z,0
2017-02-02T03:34:40.571Z,0
2017-02-02T03:35:52.027Z,0
2017-02-02T03:37:03.422Z,0
2017-02-02T03:38:14.815Z,0
2017-02-02T03:39:26.209Z,0
2017-02-02T03:40:37.602Z,0
2017-02-02T03:41:49.048Z,0
2017-02-02T03:43:00.454Z,0
2017-02-02T03:44:11.851Z,0
2017-02-02T03:45:23.448Z,0
2017-02-02T03:46:34.845Z,0
2017-02-02T03:47:46.299Z,0
2017-02-02T03:48:57.697Z,0
2017-02-02T03:50:09.102Z,0
2017-02-02T03:51:20.505Z,0
2017-02-02T03:52:31.902Z,0
2017-02-02T03:53:43.562Z,0
2017-02-02T03:54:54.961Z,0
2017-02-02T03:56:06.354Z,0
2017-02-02T03:57:17.755Z,0
2017-02-02T03:58:29.148Z,0
2017-02-02T03:59:40.601Z,0
2017-02-02T04:00:52.006Z,0
2017-02-02T04:02:03.615Z,0
2017-02-02T04:03:15.230Z,0
2017-02-02T04:04:26.634Z,0
2017-02-02T04:05:38.286Z,0
2017-02-02T04:06:49.690Z,0
2017-02-02T04:08:01.099Z,0
2017-02-02T04:09:12.700Z,0
2017-02-02T04:10:24.100Z,0
2017-02-02T04:11:35.750Z,0
2017-02-02T04:12:47.357Z,0
2017-02-02T04:13:58.764Z,0
2017-02-02T04:15:10.556Z,0
2017-02-02T04:16:21.954Z,0
2017-02-02T04:17:33.405Z,0
2017-02-02T04:18:44.797Z,0
2017-02-02T04:19:56.403Z,0
2017-02-02T04:21:08.004Z,0
2017-02-02T04:22:19.807Z,0
2017-02-02T04:23:31.255Z,0
2017-02-02T04:24:42.650Z,0
2017-02-02T04:25:54.041Z,0
2017-02-02T04:27:05.636Z,0
2017-02-02T04:28:17.037Z,0
2017-02-02T04:29:28.486Z,0
2017-02-02T04:30:39.889Z,0
2017-02-02T04:31:51.293Z,0
2017-02-02T04:33:02.897Z,0
2017-02-02T04:34:14.295Z,0
2017-02-02T04:35:25.747Z,0
2017-02-02T04:36:37.146Z,0
2017-02-02T04:37:48.553Z,0
2017-02-02T04:38:59.954Z,0
2017-02-02T04:40:11.355Z,0
2017-02-02T04:41:22.807Z,0
2017-02-02T04:42:34.214Z,0
2017-02-02T04:43:45.614Z,0
2017-02-02T04:44:57.021Z,0
2017-02-02T04:46:08.419Z,0
2017-02-02T04:47:19.864Z,0
2017-02-02T04:48:31.465Z,0
2017-02-02T04:49:43.063Z,0
2017-02-02T04:50:54.467Z,0
2017-02-02T04:52:06.067Z,0
2017-02-02T04:53:17.916Z,0
2017-02-02T04:54:29.320Z,0
2017-02-02T04:55:40.718Z,0
2017-02-02T04:56:52.133Z,0
2017-02-02T04:58:03.547Z,0
2017-02-02T04:59:15.003Z,0
2017-02-02T05:00:26.403Z,0
2017-02-02T05:01:37.802Z,0
2017-02-02T05:02:49.405Z,0
2017-02-02T05:04:00.805Z,0
2017-02-02T05:05:12.455Z,0
2017-02-02T05:06:23.855Z,0
2017-02-02T05:07:35.252Z,0
2017-02-02T05:08:46.645Z,0
2017-02-02T05:09:58.048Z,0
2017-02-02T05:11:09.499Z,0
2017-02-02T05:12:20.909Z,0
2017-02-02T05:13:32.311Z,0
2017-02-02T05:14:43.709Z,0
2017-02-02T05:15:55.310Z,0
2017-02-02T05:17:06.755Z,0
2017-02-02T05:18:18.354Z,0
2017-02-02T05:19:29.767Z,0
2017-02-02T05:20:41.169Z,0
2017-02-02T05:21:52.564Z,0
2017-02-02T05:23:04.009Z,0
2017-02-02T05:24:15.420Z,0
2017-02-02T05:25:26.824Z,0
2017-02-02T05:26:38.422Z,0
2017-02-02T05:27:49.818Z,0
2017-02-02T05:29:01.269Z,0
2017-02-02T05:30:12.673Z,0
2017-02-02T05:31:24.080Z,0
2017-02-02T05:32:35.480Z,0
2017-02-02T05:33:46.886Z,0
2017-02-02T05:34:58.339Z,0
2017-02-02T05:36:09.944Z,0
2017-02-02T05:37:21.348Z,0
2017-02-02T05:38:32.945Z,0
2017-02-02T05:39:44.359Z,0
2017-02-02T05:40:55.814Z,0
2017-02-02T05:42:07.215Z,0
2017-02-02T05:43:18.821Z,0
2017-02-02T05:44:30.218Z,0
2017-02-02T05:45:41.630Z,0
2017-02-02T05:46:53.288Z,0
2017-02-02T05:48:04.682Z,0
2017-02-02T05:49:16.085Z,0
2017-02-02T05:50:27.481Z,0
2017-02-02T05:51:38.885Z,0
2017-02-02T05:52:50.333Z,0
2017-02-02T05:54:01.734Z,0
2017-02-02T05:55:13.129Z,0
2017-02-02T05:56:24.530Z,0
2017-02-02T05:57:35.932Z,0
2017-02-02T05:58:47.587Z,0
2017-02-02T05:59:58.981Z,0
2017-02-02T06:01:10.588Z,0
2017-02-02T06:02:21.980Z,0
2017-02-02T06:03:33.577Z,0
2017-02-02T06:04:45.026Z,0
2017-02-02T06:05:56.630Z,0
2017-02-02T06:07:08.228Z,0
2017-02-02T06:08:19.632Z,0
2017-02-02T06:09:31.034Z,0
2017-02-02T06:10:42.483Z,0
2017-02-02T06:11:53.875Z,0
2017-02-02T06:13:05.273Z,0
2017-02-02T06:14:16.671Z,0
2017-02-02T06:15:28.071Z,0
2017-02-02T06:16:39.518Z,0
2017-02-02T06:17:50.919Z,0
2017-02-02T06:19:02.320Z,0
2017-02-02T06:20:13.726Z,0
2017-02-02T06:21:25.130Z,0
2017-02-02T06:22:36.584Z,0
2017-02-02T06:23:47.985Z,0
2017-02-02T06:24:59.381Z,0
2017-02-02T06:26:10.786Z,0
2017-02-02T06:27:22.183Z,0
2017-02-02T06:28:33.634Z,4
2017-02-02T06:29:45.065Z,4
2017-02-02T06:30:56.468Z,0
2017-02-02T06:32:07.866Z,4
2017-02-02T06:33:19.267Z,4
2017-02-02T06:34:30.709Z,8
2017-02-02T06:35:42.306Z,4
2017-02-02T06:36:53.698Z,4
2017-02-02T06:38:05.302Z,8
2017-02-02T06:39:16.699Z,12
2017-02-02T06:40:28.147Z,8
2017-02-02T06:41:39.551Z,12
2017-02-02T06:42:50.951Z,16
2017-02-02T06:44:02.353Z,16
2017-02-02T06:45:13.762Z,24
2017-02-02T06:46:25.411Z,28
2017-02-02T06:47:36.810Z,36
2017-02-02T06:48:48.212Z,40
2017-02-02T06:49:59.611Z,48
2017-02-02T06:51:11.012Z,56
2017-02-02T06:52:22.458Z,64
2017-02-02T06:53:33.858Z,76
2017-02-02T06:54:45.259Z,88
2017-02-02T06:55:56.659Z,100
2017-02-02T06:57:08.054Z,112
2017-02-02T06:58:19.512Z,124
2017-02-02T06:59:30.906Z,144
2017-02-02T07:00:42.302Z,160
2017-02-02T07:01:53.697Z,180
2017-02-02T07:03:05.095Z,208
2017-02-02T07:04:16.550Z,236
2017-02-02T07:05:27.947Z,268
2017-02-02T07:06:39.751Z,300
2017-02-02T07:07:51.153Z,332
2017-02-02T07:09:02.558Z,376
2017-02-02T07:10:14.005Z,416
2017-02-02T07:11:25.409Z,464
2017-02-02T07:12:36.817Z,512
2017-02-02T07:13:48.213Z,564
2017-02-02T07:14:59.806Z,628
2017-02-02T07:16:11.202Z,692
2017-02-02T07:17:22.603Z,756
2017-02-02T07:18:34.013Z,820
2017-02-02T07:19:45.414Z,888
2017-02-02T07:20:56.864Z,956
2017-02-02T07:22:08.469Z,1028
2017-02-02T07:23:19.864Z,1096
2017-02-02T07:24:31.265Z,1176
2017-02-02T07:25:42.671Z,1264
2017-02-02T07:26:54.123Z,1336
2017-02-02T07:28:05.519Z,1368
2017-02-02T07:29:16.921Z,1400
2017-02-02T07:30:28.343Z,1448
2017-02-02T07:31:39.744Z,1512
2017-02-02T07:32:51.395Z,1616
2017-02-02T07:34:02.790Z,1652
2017-02-02T07:35:14.187Z,1768
2017-02-02T07:36:25.608Z,2088
2017-02-02T07:37:37.008Z,2360
2017-02-02T07:38:48.455Z,2552
2017-02-02T07:40:00.058Z,2684
2017-02-02T07:41:11.456Z,2952
2017-02-02T07:42:22.861Z,3180
2017-02-02T07:43:34.255Z,3524
2017-02-02T07:44:45.700Z,3468
2017-02-02T07:45:57.100Z,3516
2017-02-02T07:47:08.904Z,3956
2017-02-02T07:48:20.302Z,3912
2017-02-02T07:49:31.702Z,3820
2017-02-02T07:50:43.350Z,3864
2017-02-02T07:51:54.754Z,3904
2017-02-02T07:53:06.166Z,4072
2017-02-02T07:54:17.560Z,3800
2017-02-02T07:55:28.968Z,4140
2017-02-02T07:56:40.767Z,4848
2017-02-02T07:57:52.166Z,5556
2017-02-02T07:59:03.760Z,4940
2017-02-02T08:00:15.381Z,5964
2017-02-02T08:01:26.790Z,6980
2017-02-02T08:02:38.249Z,7060
2017-02-02T08:03:49.647Z,6832
2017-02-02T08:05:01.048Z,6700
2017-02-02T08:06:12.451Z,6260
2017-02-02T08:07:23.855Z,6508
2017-02-02T08:08:35.309Z,6696
2017-02-02T08:09:46.704Z,6180
2017-02-02T08:10:58.114Z,6672
2017-02-02T08:12:09.541Z,7332
2017-02-02T08:13:20.939Z,6392
2017-02-02T08:14:32.393Z,5724
2017-02-02T08:15:43.791Z,6180
2017-02-02T08:16:55.199Z,5212
2017-02-02T08:18:06.602Z,5632
2017-02-02T08:19:18.001Z,4160
2017-02-02T08:20:29.471Z,5468
2017-02-02T08:21:40.871Z,5000
2017-02-02T08:22:52.274Z,4692
2017-02-02T08:24:03.672Z,5128
2017-02-02T08:25:15.482Z,4336
2017-02-02T08:26:26.930Z,4360
2017-02-02T08:27:38.338Z,4628
2017-02-02T08:28:49.742Z,5460
2017-02-02T08:30:01.148Z,7256
2017-02-02T08:31:12.540Z,14112
2017-02-02T08:32:23.992Z,19040
2017-02-02T08:33:35.394Z,19072
2017-02-02T08:34:46.791Z,16064
2017-02-02T08:35:58.197Z,13216
2017-02-02T08:37:09.596Z,8772
2017-02-02T08:38:21.052Z,7104
2017-02-02T08:39:32.456Z,6344
2017-02-02T08:40:43.857Z,6452
2017-02-02T08:41:55.261Z,5728
2017-02-02T08:43:06.661Z,5240
2017-02-02T08:44:18.112Z,5212
2017-02-02T08:45:29.514Z,5436
2017-02-02T08:46:40.917Z,5900
2017-02-02T08:47:52.517Z,6324
2017-02-02T08:49:03.919Z,6256
2017-02-02T08:50:15.378Z,5956
2017-02-02T08:51:26.783Z,5892
2017-02-02T08:52:38.588Z,5992
2017-02-02T08:53:49.998Z,6504
2017-02-02T08:55:01.398Z,7144
2017-02-02T08:56:12.845Z,7816
2017-02-02T08:57:24.265Z,18720
2017-02-02T08:58:35.679Z,31104
2017-02-02T08:59:47.081Z,30848
2017-02-02T09:00:58.490Z,23136
2017-02-02T09:02:10.144Z,13064
2017-02-02T09:03:21.552Z,21376
2017-02-02T09:04:32.956Z,26400
2017-02-02T09:05:44.761Z,28736
2017-02-02T09:06:56.174Z,33216
2017-02-02T09:08:07.627Z,33696
2017-02-02T09:09:19.037Z,28800
2017-02-02T09:10:30.439Z,24032
2017-02-02T09:11:41.843Z,24864
2017-02-02T09:12:53.454Z,29056
2017-02-02T09:14:05.103Z,30784
2017-02-02T09:15:16.504Z,30048
2017-02-02T09:16:27.938Z,28288
2017-02-02T09:17:39.354Z,28416
2017-02-02T09:18:50.759Z,25600
2017-02-02T09:20:02.420Z,15452
2017-02-02T09:21:13.827Z,12384
2017-02-02T09:22:25.440Z,11980
2017-02-02T09:23:36.847Z,15608
2017-02-02T09:24:48.252Z,17024
2017-02-02T09:25:59.714Z,33952
2017-02-02T09:27:11.116Z,27040
2017-02-02T09:28:22.528Z,43488
2017-02-02T09:29:33.963Z,45312
2017-02-02T09:30:45.368Z,56128
2017-02-02T09:31:56.830Z,59680
2017-02-02T09:33:08.240Z,59680
2017-02-02T09:34:19.661Z,59488
2017-02-02T09:35:31.072Z,58432
2017-02-02T09:36:42.485Z,57440
2017-02-02T09:37:53.950Z,59584
2017-02-02T09:39:05.371Z,59648
2017-02-02T09:40:16.802Z,58656
2017-02-02T09:41:28.424Z,59328
2017-02-02T09:42:39.846Z,59968
2017-02-02T09:43:51.313Z,60768
2017-02-02T09:45:02.733Z,59712
2017-02-02T09:46:14.209Z,60896
2017-02-02T09:47:25.626Z,59296
2017-02-02T09:48:37.257Z,56896
2017-02-02T09:49:48.729Z,56992
2017-02-02T09:51:00.553Z,60416
2017-02-02T09:52:11.982Z,61600
2017-02-02T09:53:23.412Z,62848
2017-02-02T09:54:35.043Z,65632
2017-02-02T09:55:46.515Z,66208
2017-02-02T09:56:57.943Z,67136
2017-02-02T09:58:09.563Z,66368
2017-02-02T09:59:20.992Z,64928
2017-02-02T10:00:32.417Z,51776
2017-02-02T10:01:43.926Z,37504
2017-02-02T10:02:55.349Z,50624
2017-02-02T10:04:06.778Z,49472
2017-02-02T10:05:18.204Z,33248
2017-02-02T10:06:29.821Z,33696
2017-02-02T10:07:41.502Z,33536
2017-02-02T10:08:52.927Z,41152
2017-02-02T10:10:04.550Z,37248
2017-02-02T10:11:15.972Z,33984
2017-02-02T10:12:27.391Z,29440
2017-02-02T10:13:38.866Z,26656
2017-02-02T10:14:50.287Z,26368
2017-02-02T10:16:01.716Z,22912
2017-02-02T10:17:13.133Z,23520
2017-02-02T10:18:24.559Z,22368
2017-02-02T10:19:36.231Z,22880
2017-02-02T10:20:47.657Z,22688
2017-02-02T10:21:59.280Z,24224
2017-02-02T10:23:10.694Z,29472
2017-02-02T10:24:22.317Z,31008
2017-02-02T10:25:33.990Z,30688
2017-02-02T10:26:45.404Z,33792
2017-02-02T10:27:56.838Z,37408
2017-02-02T10:29:08.252Z,32832
2017-02-02T10:30:19.671Z,32512
2017-02-02T10:31:31.142Z,45152
2017-02-02T10:32:42.993Z,49728
2017-02-02T10:33:54.616Z,55200
2017-02-02T10:35:06.036Z,58272
2017-02-02T10:36:17.461Z,60256
2017-02-02T10:37:28.929Z,60960
2017-02-02T10:38:40.349Z,54176
2017-02-02T10:39:51.774Z,56032
2017-02-02T10:41:03.193Z,59040
2017-02-02T10:42:14.612Z,57728
2017-02-02T10:43:26.091Z,58272
2017-02-02T10:44:37.512Z,55232
2017-02-02T10:45:48.942Z,56000
2017-02-02T10:47:00.572Z,58176
2017-02-02T10:48:11.999Z,57376
2017-02-02T10:49:23.477Z,57472
2017-02-02T10:50:35.106Z,57632
2017-02-02T10:51:46.524Z,55296
2017-02-02T10:52:57.952Z,55200
2017-02-02T10:54:09.778Z,54048
2017-02-02T10:55:21.254Z,53056
2017-02-02T10:56:32.679Z,53632
2017-02-02T10:57:44.315Z,58016
2017-02-02T10:58:55.738Z,57632
2017-02-02T11:00:07.169Z,56000
2017-02-02T11:01:18.851Z,56384
2017-02-02T11:02:30.271Z,55904
2017-02-02T11:03:41.898Z,34624
2017-02-02T11:04:53.314Z,34784
2017-02-02T11:06:04.756Z,38976
2017-02-02T11:07:16.426Z,23744
2017-02-02T11:08:27.854Z,17792
2017-02-02T11:09:39.273Z,15560
2017-02-02T11:10:50.702Z,16256
2017-02-02T11:12:02.124Z,15492
2017-02-02T11:13:13.610Z,13368
2017-02-02T11:14:25.025Z,12296
2017-02-02T11:15:36.453Z,11172
2017-02-02T11:16:47.887Z,11732
2017-02-02T11:17:59.308Z,16256
2017-02-02T11:19:10.771Z,28832
2017-02-02T11:20:22.390Z,32096
2017-02-02T11:21:33.803Z,18912
2017-02-02T11:22:45.217Z,14448
2017-02-02T11:23:56.662Z,13432
2017-02-02T11:25:08.134Z,15564
2017-02-02T11:26:19.559Z,18688
2017-02-02T11:27:30.977Z,23328
2017-02-02T11:28:42.594Z,26144
2017-02-02T11:29:54.002Z,27584
2017-02-02T11:31:05.466Z,25536
2017-02-02T11:32:16.890Z,22880
2017-02-02T11:33:28.711Z,22048
2017-02-02T11:34:40.116Z,27872
2017-02-02T11:35:51.534Z,26592
2017-02-02T11:37:03.038Z,32448
2017-02-02T11:38:14.459Z,35936
2017-02-02T11:39:25.872Z,38400
2017-02-02T11:40:37.289Z,45632
2017-02-02T11:41:48.709Z,49408
2017-02-02T11:43:00.178Z,46528
2017-02-02T11:44:11.594Z,47008
2017-02-02T11:45:23.015Z,40320
2017-02-02T11:46:34.434Z,36352
2017-02-02T11:47:45.851Z,30880
2017-02-02T11:48:57.326Z,28256
2017-02-02T11:50:08.739Z,32992
2017-02-02T11:51:20.154Z,34048
2017-02-02T11:52:31.576Z,31776
2017-02-02T11:53:42.994Z,39872
2017-02-02T11:54:54.470Z,40672
2017-02-02T11:56:05.891Z,43648
2017-02-02T11:57:17.315Z,43712
2017-02-02T11:58:28.738Z,38656
2017-02-02T11:59:40.151Z,35424
2017-02-02T12:00:51.628Z,32352
2017-02-02T12:02:03.247Z,38912
2017-02-02T12:03:14.667Z,40160
2017-02-02T12:04:26.084Z,32032
2017-02-02T12:05:37.500Z,35104
2017-02-02T12:06:48.957Z,33728
2017-02-02T12:08:00.398Z,35008
2017-02-02T12:09:11.817Z,36704
2017-02-02T12:10:23.251Z,35520
2017-02-02T12:11:34.677Z,30848
2017-02-02T12:12:46.355Z,30016
2017-02-02T12:13:57.781Z,29344
2017-02-02T12:15:09.202Z,22848
2017-02-02T12:16:20.833Z,21376
2017-02-02T12:17:32.256Z,19392
2017-02-02T12:18:43.730Z,11292
2017-02-02T12:19:55.147Z,23040
2017-02-02T12:21:06.569Z,32544
2017-02-02T12:22:18.200Z,31360
2017-02-02T12:23:29.826Z,29440
2017-02-02T12:24:41.292Z,21152
2017-02-02T12:25:52.716Z,12520
2017-02-02T12:27:04.140Z,18432
2017-02-02T12:28:15.559Z,23968
2017-02-02T12:29:26.978Z,28448
2017-02-02T12:30:38.446Z,27712
2017-02-02T12:31:49.880Z,23584
2017-02-02T12:33:01.290Z,14200
2017-02-02T12:34:12.721Z,21280
2017-02-02T12:35:24.343Z,21344
2017-02-02T12:36:35.812Z,21344
2017-02-02T12:37:47.235Z,19648
2017-02-02T12:38:58.664Z,19232
2017-02-02T12:40:10.085Z,20448
2017-02-02T12:41:21.497Z,15048
2017-02-02T12:42:32.972Z,14212
2017-02-02T12:43:44.594Z,22496
2017-02-02T12:44:56.023Z,21344
2017-02-02T12:46:07.437Z,17888
2017-02-02T12:47:18.856Z,12764
2017-02-02T12:48:30.319Z,12160
2017-02-02T12:49:41.746Z,13428
2017-02-02T12:50:53.193Z,11416
2017-02-02T12:52:04.614Z,12116
2017-02-02T12:53:16.042Z,10548
2017-02-02T12:54:27.712Z,12332
2017-02-02T12:55:39.129Z,16384
2017-02-02T12:56:50.552Z,16928
2017-02-02T12:58:01.965Z,12816
2017-02-02T12:59:13.379Z,13212
2017-02-02T13:00:24.849Z,16128
2017-02-02T13:01:36.268Z,17728
2017-02-02T13:02:47.684Z,18880
2017-02-02T13:03:59.306Z,16288
2017-02-02T13:05:10.734Z,14180
2017-02-02T13:06:22.232Z,12420
2017-02-02T13:07:33.661Z,11624
2017-02-02T13:08:45.076Z,10540
2017-02-02T13:09:56.488Z,7492
2017-02-02T13:11:08.103Z,7700
2017-02-02T13:12:19.598Z,9352
2017-02-02T13:13:31.029Z,7808
2017-02-02T13:14:42.464Z,7676
2017-02-02T13:15:53.877Z,7200
2017-02-02T13:17:05.300Z,7012
2017-02-02T13:18:16.972Z,6840
2017-02-02T13:19:28.397Z,6924
2017-02-02T13:20:39.815Z,6960
2017-02-02T13:21:51.231Z,7352
2017-02-02T13:23:02.854Z,7764
2017-02-02T13:24:14.529Z,7868
2017-02-02T13:25:26.157Z,7624
2017-02-02T13:26:37.597Z,7332
2017-02-02T13:27:49.009Z,7516
2017-02-02T13:29:00.424Z,7508
2017-02-02T13:30:11.901Z,7424
2017-02-02T13:31:23.319Z,6944
2017-02-02T13:32:34.740Z,6472
2017-02-02T13:33:46.367Z,6712
2017-02-02T13:34:57.778Z,6448
2017-02-02T13:36:09.252Z,6468
2017-02-02T13:37:20.873Z,5944
2017-02-02T13:38:32.317Z,5416
2017-02-02T13:39:43.734Z,5328
2017-02-02T13:40:55.155Z,5064
2017-02-02T13:42:06.625Z,4472
2017-02-02T13:43:18.038Z,4208
2017-02-02T13:44:29.459Z,4144
2017-02-02T13:45:40.879Z,4088
2017-02-02T13:46:52.295Z,4000
2017-02-02T13:48:03.761Z,4256
2017-02-02T13:49:15.187Z,4484
2017-02-02T13:50:26.614Z,4620
2017-02-02T13:51:38.040Z,4560
2017-02-02T13:52:49.458Z,4328
2017-02-02T13:54:00.926Z,4416
2017-02-02T13:55:12.337Z,4468
2017-02-02T13:56:23.747Z,5000
2017-02-02T13:57:35.185Z,5028
2017-02-02T13:58:46.813Z,4272
2017-02-02T13:59:58.280Z,3744
2017-02-02T14:01:09.700Z,3600
2017-02-02T14:02:21.112Z,3556
2017-02-02T14:03:32.933Z,3560
2017-02-02T14:04:44.352Z,3548
2017-02-02T14:05:55.821Z,3528
2017-02-02T14:07:07.246Z,3484
2017-02-02T14:08:18.852Z,3404
2017-02-02T14:09:30.272Z,3312
2017-02-02T14:10:41.689Z,3232
2017-02-02T14:11:53.154Z,3180
2017-02-02T14:13:04.575Z,3184
2017-02-02T14:14:15.988Z,3224
2017-02-02T14:15:27.405Z,3296
2017-02-02T14:16:38.826Z,3368
2017-02-02T14:17:50.298Z,3424
2017-02-02T14:19:01.708Z,3452
2017-02-02T14:20:13.533Z,3452
2017-02-02T14:21:24.975Z,3436
2017-02-02T14:22:36.593Z,3400
2017-02-02T14:23:48.263Z,3344
2017-02-02T14:24:59.675Z,3288
2017-02-02T14:26:11.097Z,3244
2017-02-02T14:27:22.519Z,3212
2017-02-02T14:28:33.933Z,3180
2017-02-02T14:29:45.394Z,3144
2017-02-02T14:30:56.813Z,3104
2017-02-02T14:32:08.228Z,3056
2017-02-02T14:33:19.846Z,3004
2017-02-02T14:34:31.260Z,2952
2017-02-02T14:35:42.725Z,2892
2017-02-02T14:36:54.143Z,2852
2017-02-02T14:38:05.555Z,2808
2017-02-02T14:39:16.971Z,2768
2017-02-02T14:40:28.376Z,2724
2017-02-02T14:41:40.235Z,2676
2017-02-02T14:42:51.649Z,2636
2017-02-02T14:44:03.066Z,2580
2017-02-02T14:45:14.478Z,2524
2017-02-02T14:46:25.893Z,2460
2017-02-02T14:47:37.360Z,2396
2017-02-02T14:48:48.971Z,2336
2017-02-02T14:50:00.383Z,2276
2017-02-02T14:51:12.023Z,2216
2017-02-02T14:52:23.431Z,2160
2017-02-02T14:53:34.892Z,2112
2017-02-02T14:54:46.310Z,2064
2017-02-02T14:55:58.129Z,2024
2017-02-02T14:57:09.575Z,1992
2017-02-02T14:58:21.189Z,1960
2017-02-02T14:59:32.853Z,1928
2017-02-02T15:00:44.280Z,1892
2017-02-02T15:01:55.692Z,1856
2017-02-02T15:03:07.104Z,1820
2017-02-02T15:04:18.553Z,1792
2017-02-02T15:05:30.019Z,1760
2017-02-02T15:06:41.431Z,1736
2017-02-02T15:07:52.846Z,1716
2017-02-02T15:09:04.256Z,1692
2017-02-02T15:10:15.671Z,1656
2017-02-02T15:11:27.130Z,1616
2017-02-02T15:12:38.738Z,1580
2017-02-02T15:13:50.162Z,1536
2017-02-02T15:15:01.770Z,1488
2017-02-02T15:16:13.185Z,1440
2017-02-02T15:17:24.650Z,1392
2017-02-02T15:18:36.058Z,1348
2017-02-02T15:19:47.473Z,1300
2017-02-02T15:20:59.086Z,1260
2017-02-02T15:22:10.496Z,1216
2017-02-02T15:23:21.966Z,1172
2017-02-02T15:24:33.377Z,1128
2017-02-02T15:25:44.797Z,1088
2017-02-02T15:26:56.206Z,1048
2017-02-02T15:28:08.017Z,1012
2017-02-02T15:29:19.679Z,976
2017-02-02T15:30:31.090Z,944
2017-02-02T15:31:42.512Z,908
2017-02-02T15:32:53.931Z,872
2017-02-02T15:34:05.339Z,840
2017-02-02T15:35:16.808Z,808
2017-02-02T15:36:28.222Z,772
2017-02-02T15:37:39.644Z,736
2017-02-02T15:38:51.054Z,700
2017-02-02T15:40:02.470Z,664
2017-02-02T15:41:13.926Z,628
2017-02-02T15:42:25.541Z,592
2017-02-02T15:43:36.952Z,556
2017-02-02T15:44:48.567Z,516
2017-02-02T15:45:59.986Z,480
2017-02-02T15:47:11.448Z,448
2017-02-02T15:48:22.854Z,420
2017-02-02T15:49:34.266Z,396
2017-02-02T15:50:45.677Z,380
2017-02-02T15:51:57.080Z,360
2017-02-02T15:53:08.542Z,348
2017-02-02T15:54:19.959Z,332
2017-02-02T15:55:31.775Z,320
2017-02-02T15:56:43.187Z,308
2017-02-02T15:57:54.806Z,292
2017-02-02T15:59:06.262Z,280
2017-02-02T16:00:17.670Z,264
2017-02-02T16:01:29.275Z,256
2017-02-02T16:02:40.686Z,240
2017-02-02T16:03:52.093Z,228
2017-02-02T16:05:03.552Z,216
2017-02-02T16:06:14.969Z,200
2017-02-02T16:07:26.378Z,188
2017-02-02T16:08:37.784Z,176
2017-02-02T16:09:49.202Z,164
2017-02-02T16:11:00.660Z,152
2017-02-02T16:12:12.069Z,144
2017-02-02T16:13:23.684Z,136
2017-02-02T16:14:35.099Z,124
2017-02-02T16:15:46.513Z,116
2017-02-02T16:16:57.975Z,108
2017-02-02T16:18:09.381Z,96
2017-02-02T16:19:20.998Z,88
2017-02-02T16:20:32.415Z,80
2017-02-02T16:21:43.827Z,72
2017-02-02T16:22:55.291Z,64
2017-02-02T16:24:06.705Z,60
2017-02-02T16:25:18.111Z,56
2017-02-02T16:26:29.724Z,48